Time;durP1;ratioP1;P1;durP2;ratioP2;P2;SDS_P1;SDS_P2;PMS_P1;PMS_P2;Temp;Humidity;BMP_temperature;BMP_pressure;BME280_temperature;BME280_humidity;BME280_pressure;Samples;Min_cycle;Max_cycle;Signal;HPM_P1;HPM_P2
2022/11/21 00:00:49;;;;;;;5.80;1.23;;;6.50;99.90;;;;;;4958056;28;20029;-72
2022/11/21 00:03:14;;;;;;;3.00;0.82;;;6.50;99.90;;;;;;4957428;28;20018;-70
2022/11/21 00:05:46;;;;;;;6.85;1.67;;;6.50;99.90;;;;;;4974615;28;20109;-70
2022/11/21 00:08:13;;;;;;;3.83;0.80;;;6.50;99.90;;;;;;4958238;28;20027;-70
2022/11/21 00:10:40;;;;;;;5.93;1.40;;;6.50;99.90;;;;;;4957149;28;20038;-70
2022/11/21 00:13:11;;;;;;;6.25;0.85;;;6.50;99.90;;;;;;4957805;28;20034;-70
2022/11/21 00:15:36;;;;;;;4.82;1.50;;;6.50;99.90;;;;;;4956924;28;20034;-70
2022/11/21 00:18:03;;;;;;;10.98;1.92;;;6.50;99.90;;;;;;4974261;28;20027;-70
2022/11/21 00:20:28;;;;;;;11.93;1.67;;;6.50;99.90;;;;;;4956919;28;20030;-70
2022/11/21 00:22:54;;;;;;;6.15;1.30;;;6.40;99.90;;;;;;4974520;28;20031;-70
2022/11/21 00:25:19;;;;;;;8.43;1.17;;;6.50;99.90;;;;;;4957247;28;20048;-70
2022/11/21 00:27:45;;;;;;;7.05;1.40;;;6.50;99.90;;;;;;4956950;28;20030;-70
2022/11/21 00:30:12;;;;;;;4.43;0.90;;;6.50;99.90;;;;;;4957254;28;20026;-70
2022/11/21 00:32:38;;;;;;;5.07;0.98;;;6.50;99.90;;;;;;4957741;28;20105;-70
2022/11/21 00:35:05;;;;;;;5.65;0.93;;;6.50;99.90;;;;;;4956654;28;20078;-70
2022/11/21 00:37:31;;;;;;;11.00;1.33;;;6.50;99.90;;;;;;4956924;28;20019;-70
2022/11/21 00:39:57;;;;;;;7.38;1.25;;;6.50;99.90;;;;;;4956783;28;20050;-70
2022/11/21 00:42:22;;;;;;;4.57;1.10;;;6.50;99.90;;;;;;4956726;28;20050;-70
2022/11/21 00:44:48;;;;;;;7.35;1.08;;;6.50;99.90;;;;;;4956675;28;20062;-70
2022/11/21 00:47:13;;;;;;;7.75;1.00;;;6.50;99.90;;;;;;4956715;28;20027;-70
2022/11/21 00:49:39;;;;;;;7.28;1.08;;;6.50;99.90;;;;;;4956766;28;20026;-70
2022/11/21 00:52:04;;;;;;;2.28;0.73;;;6.50;99.90;;;;;;4974323;28;20036;-70
2022/11/21 00:54:30;;;;;;;8.82;2.22;;;6.50;99.90;;;;;;4958105;28;20026;-70
2022/11/21 00:56:55;;;;;;;4.38;1.10;;;6.50;99.90;;;;;;4977759;28;20078;-70
2022/11/21 00:59:21;;;;;;;8.35;1.40;;;6.50;99.90;;;;;;4977751;28;20019;-70
2022/11/21 01:01:46;;;;;;;4.10;1.08;;;6.50;99.90;;;;;;4960392;28;20030;-70
2022/11/21 01:04:12;;;;;;;9.32;1.30;;;6.50;99.90;;;;;;4960188;28;20113;-70
2022/11/21 01:06:38;;;;;;;6.05;1.40;;;6.50;99.90;;;;;;4960232;28;20042;-70
2022/11/21 01:09:03;;;;;;;11.20;1.08;;;6.40;99.90;;;;;;4977829;28;20170;-70
2022/11/21 01:11:29;;;;;;;6.97;1.02;;;6.40;99.90;;;;;;4977456;28;20046;-70
2022/11/21 01:14:05;;;;;;;9.63;1.25;;;6.40;99.90;;;;;;4960074;28;20117;-70
2022/11/21 01:16:30;;;;;;;7.53;1.17;;;6.40;99.90;;;;;;4960881;28;20078;-70
2022/11/21 01:18:57;;;;;;;2.75;0.95;;;6.40;99.90;;;;;;4960306;28;20119;-70
2022/11/21 01:21:24;;;;;;;5.93;1.08;;;6.50;99.90;;;;;;4959908;28;20019;-70
2022/11/21 01:23:50;;;;;;;6.65;1.58;;;6.50;99.90;;;;;;4977140;28;20026;-70
2022/11/21 01:26:21;;;;;;;5.68;1.13;;;6.50;99.90;;;;;;4959779;28;20114;-70
2022/11/21 01:28:47;;;;;;;4.38;1.00;;;6.50;99.90;;;;;;4977513;28;20099;-70
2022/11/21 01:31:25;;;;;;;7.85;1.08;;;6.50;99.90;;;;;;4960097;28;20038;-70
2022/11/21 01:33:52;;;;;;;3.40;1.08;;;6.50;99.90;;;;;;4959761;28;20026;-70
2022/11/21 01:36:22;;;;;;;3.35;1.17;;;6.50;99.90;;;;;;4960079;28;20046;-70
2022/11/21 01:38:49;;;;;;;5.22;1.55;;;6.40;99.90;;;;;;4959920;28;20025;-70
2022/11/21 01:41:25;;;;;;;7.93;1.75;;;6.40;99.90;;;;;;4977152;28;20019;-70
2022/11/21 01:43:51;;;;;;;5.85;2.10;;;6.40;99.90;;;;;;4959538;28;20081;-70
2022/11/21 01:46:19;;;;;;;7.28;1.52;;;6.40;99.90;;;;;;4976787;28;20019;-70
2022/11/21 01:48:57;;;;;;;5.38;2.45;;;6.40;99.90;;;;;;4960346;28;20054;-70
2022/11/21 01:51:31;;;;;;;5.10;1.40;;;6.40;99.90;;;;;;4959461;28;20023;-70
2022/11/21 01:54:24;;;;;;;5.90;1.88;;;6.40;99.90;;;;;;4959464;28;20030;-70
2022/11/21 01:56:57;;;;;;;6.57;1.23;;;6.40;99.90;;;;;;4959481;28;20026;-70
2022/11/21 01:59:49;;;;;;;7.05;1.40;;;6.40;99.90;;;;;;4959079;28;20034;-70
2022/11/21 02:02:18;;;;;;;4.20;1.23;;;6.40;99.90;;;;;;4958636;28;20393;-70
2022/11/21 02:04:45;;;;;;;4.03;1.60;;;6.50;99.90;;;;;;4958985;28;20066;-70
2022/11/21 02:07:12;;;;;;;6.93;1.77;;;6.50;99.90;;;;;;4958232;28;20019;-70
2022/11/21 02:09:42;;;;;;;10.57;1.80;;;6.50;99.90;;;;;;4959238;28;20027;-70
2022/11/21 02:12:14;;;;;;;17.08;2.60;;;6.50;99.90;;;;;;4959402;28;20023;-70
2022/11/21 02:14:42;;;;;;;14.60;2.10;;;6.40;99.90;;;;;;4958879;28;20023;-70
2022/11/21 02:17:08;;;;;;;9.35;1.52;;;6.40;99.90;;;;;;4976277;28;20027;-70
2022/11/21 02:19:46;;;;;;;9.07;1.90;;;6.50;99.90;;;;;;4976219;28;20114;-70
2022/11/21 02:22:42;;;;;;;10.32;2.28;;;6.50;99.90;;;;;;4976254;28;20106;-70
2022/11/21 02:25:13;;;;;;;10.95;2.08;;;6.50;99.90;;;;;;4976229;28;20062;-70
2022/11/21 02:27:39;;;;;;;5.13;1.98;;;6.60;99.90;;;;;;4976331;28;20114;-70
2022/11/21 02:30:06;;;;;;;4.88;1.98;;;6.60;99.90;;;;;;4958861;28;20085;-70
2022/11/21 02:32:50;;;;;;;4.38;1.88;;;6.70;99.90;;;;;;4958549;28;20015;-70
2022/11/21 02:35:17;;;;;;;8.35;2.42;;;6.80;99.90;;;;;;4959250;28;20035;-70
2022/11/21 02:37:46;;;;;;;8.15;1.52;;;6.70;99.90;;;;;;4975953;28;20033;-70
2022/11/21 02:40:17;;;;;;;7.97;2.15;;;6.70;99.90;;;;;;4959651;28;20027;-70
2022/11/21 02:43:05;;;;;;;10.05;1.58;;;6.70;99.90;;;;;;4959134;28;20051;-70
2022/11/21 02:45:44;;;;;;;6.85;1.75;;;6.60;99.90;;;;;;4958437;28;20027;-70
2022/11/21 02:48:11;;;;;;;6.93;1.65;;;6.70;99.90;;;;;;4958306;28;20035;-70
2022/11/21 02:50:41;;;;;;;6.72;1.88;;;6.70;99.90;;;;;;4958894;28;20026;-70
2022/11/21 02:53:10;;;;;;;7.70;2.00;;;6.70;99.90;;;;;;4975859;28;20034;-70
2022/11/21 02:55:36;;;;;;;8.07;1.90;;;6.60;99.90;;;;;;4958863;28;20090;-70
2022/11/21 02:58:02;;;;;;;6.78;1.75;;;6.60;99.90;;;;;;4958302;28;20019;-70
2022/11/21 03:00:28;;;;;;;4.95;1.40;;;6.60;99.90;;;;;;4975824;28;20033;-70
2022/11/21 03:02:54;;;;;;;6.50;1.50;;;6.70;99.90;;;;;;4958202;28;20023;-70
2022/11/21 03:05:21;;;;;;;6.72;1.60;;;6.70;99.90;;;;;;4976166;28;20363;-69
2022/11/21 03:07:47;;;;;;;5.13;1.60;;;6.70;99.90;;;;;;4958330;28;20027;-69
2022/11/21 03:10:12;;;;;;;5.70;1.40;;;6.70;99.90;;;;;;4957997;28;20050;-69
2022/11/21 03:12:40;;;;;;;5.97;1.40;;;6.80;99.90;;;;;;4958271;28;20035;-69
2022/11/21 03:15:07;;;;;;;3.05;1.65;;;6.80;99.90;;;;;;4957825;28;20034;-69
2022/11/21 03:17:33;;;;;;;8.93;2.05;;;6.70;99.90;;;;;;4957519;28;20023;-69
2022/11/21 03:19:59;;;;;;;9.55;1.83;;;6.60;99.90;;;;;;4958181;28;20033;-69
2022/11/21 03:22:24;;;;;;;3.90;1.23;;;6.50;99.90;;;;;;4957806;28;20027;-69
2022/11/21 03:24:50;;;;;;;3.58;1.70;;;6.50;99.90;;;;;;4957616;28;20043;-69
2022/11/21 03:27:15;;;;;;;3.22;1.65;;;6.50;99.90;;;;;;4958118;28;20019;-69
2022/11/21 03:29:41;;;;;;;4.25;1.48;;;6.50;99.90;;;;;;4957631;28;20394;-69
2022/11/21 03:32:07;;;;;;;6.45;1.48;;;6.50;99.90;;;;;;4975376;28;20031;-69
2022/11/21 03:34:32;;;;;;;2.00;1.45;;;6.50;99.90;;;;;;4957558;28;20062;-69
2022/11/21 03:36:58;;;;;;;5.32;1.83;;;6.50;99.90;;;;;;4958130;28;20211;-69
2022/11/21 03:39:23;;;;;;;3.90;1.80;;;6.40;99.90;;;;;;4975103;28;20102;-69
2022/11/21 03:41:49;;;;;;;5.85;1.67;;;6.50;99.90;;;;;;4957473;28;20023;-69
2022/11/21 03:44:14;;;;;;;3.00;1.70;;;6.40;99.90;;;;;;4957526;28;20026;-69
2022/11/21 03:46:43;;;;;;;2.70;1.80;;;6.50;99.90;;;;;;4957657;28;20026;-69
2022/11/21 03:49:09;;;;;;;4.35;2.63;;;6.50;99.90;;;;;;4957353;28;20036;-69
2022/11/21 03:51:35;;;;;;;2.33;1.80;;;6.50;99.90;;;;;;4975034;28;20035;-69
2022/11/21 03:54:01;;;;;;;4.20;3.05;;;6.50;99.90;;;;;;4957215;28;20117;-69
2022/11/21 03:56:27;;;;;;;4.78;2.58;;;6.50;99.90;;;;;;4974799;28;20027;-69
2022/11/21 03:58:53;;;;;;;4.72;2.42;;;6.50;99.90;;;;;;4957244;28;20023;-69
2022/11/21 04:01:19;;;;;;;2.90;2.30;;;6.60;99.90;;;;;;4974606;28;20030;-69
2022/11/21 04:03:46;;;;;;;7.00;2.67;;;6.60;99.90;;;;;;4974792;28;20541;-69
2022/11/21 04:06:13;;;;;;;4.75;2.47;;;6.50;99.90;;;;;;4974530;28;20086;-69
2022/11/21 04:08:38;;;;;;;8.80;2.83;;;6.60;99.90;;;;;;4974741;28;20053;-69
2022/11/21 04:11:04;;;;;;;2.53;2.03;;;6.70;99.90;;;;;;4974759;28;20474;-69
2022/11/21 04:13:30;;;;;;;5.20;2.97;;;6.70;99.90;;;;;;4957838;28;20126;-69
2022/11/21 04:15:55;;;;;;;6.82;3.05;;;6.70;99.90;;;;;;4957461;28;20023;-69
2022/11/21 04:18:21;;;;;;;2.42;2.10;;;6.70;99.90;;;;;;4957424;28;20023;-69
2022/11/21 04:20:47;;;;;;;4.25;2.30;;;6.80;99.90;;;;;;4957044;28;20018;-69
2022/11/21 04:23:12;;;;;;;5.47;2.38;;;6.80;99.90;;;;;;4974387;28;20023;-69
2022/11/21 04:25:39;;;;;;;4.07;2.65;;;6.80;99.90;;;;;;4957816;28;20037;-69
2022/11/21 04:28:04;;;;;;;10.88;3.13;;;6.80;99.90;;;;;;4956975;28;20038;-69
2022/11/21 04:30:31;;;;;;;11.30;3.42;;;6.80;99.90;;;;;;4977814;28;20023;-69
2022/11/21 04:32:57;;;;;;;12.85;3.25;;;6.80;99.90;;;;;;4960966;28;20038;-69
2022/11/21 04:35:23;;;;;;;7.22;3.28;;;6.80;99.90;;;;;;4978189;28;20031;-69
2022/11/21 04:37:49;;;;;;;9.65;2.75;;;6.90;99.90;;;;;;4960865;28;20113;-69
2022/11/21 04:40:16;;;;;;;8.40;3.40;;;6.90;99.90;;;;;;4960837;28;20030;-69
2022/11/21 04:42:43;;;;;;;8.30;3.10;;;6.90;99.90;;;;;;4978310;28;20031;-69
2022/11/21 04:45:09;;;;;;;9.20;3.20;;;6.90;99.90;;;;;;4960570;28;20050;-69
2022/11/21 04:47:39;;;;;;;12.85;3.58;;;6.90;99.90;;;;;;4978178;28;20034;-69
2022/11/21 04:50:05;;;;;;;16.95;4.88;;;6.90;99.90;;;;;;4960618;28;20027;-69
2022/11/21 04:52:31;;;;;;;8.10;3.33;;;6.90;99.90;;;;;;4977820;28;20031;-69
2022/11/21 04:54:56;;;;;;;10.27;3.78;;;6.90;99.90;;;;;;4961126;28;20030;-69
2022/11/21 04:57:22;;;;;;;10.88;3.63;;;6.90;99.90;;;;;;4961257;28;20022;-69
2022/11/21 04:59:48;;;;;;;6.72;4.00;;;6.90;99.90;;;;;;4960566;28;20030;-69
2022/11/21 05:02:13;;;;;;;13.45;4.30;;;6.90;99.90;;;;;;4960334;28;20058;-69
2022/11/21 05:04:39;;;;;;;10.52;3.50;;;6.90;99.90;;;;;;4960866;28;20031;-69
2022/11/21 05:07:04;;;;;;;7.95;3.03;;;6.90;99.90;;;;;;4960268;28;20030;-69
2022/11/21 05:09:30;;;;;;;8.48;3.50;;;6.90;99.90;;;;;;4960269;28;20027;-69
2022/11/21 05:14:40;;;;;;;3.47;2.85;;;6.90;99.90;;;;;;4977361;28;20037;-69
2022/11/21 05:17:05;;;;;;;11.70;3.35;;;6.80;99.90;;;;;;4960292;28;20019;-69
2022/11/21 05:19:31;;;;;;;11.40;3.08;;;6.90;99.90;;;;;;4960099;28;20022;-69
2022/11/21 05:21:56;;;;;;;11.52;4.03;;;6.90;99.90;;;;;;4960791;28;20023;-69
2022/11/21 05:24:22;;;;;;;11.15;3.88;;;6.80;99.90;;;;;;4960225;28;20062;-69
2022/11/21 05:26:47;;;;;;;10.10;2.72;;;6.80;99.90;;;;;;4959815;28;20026;-69
2022/11/21 05:29:13;;;;;;;11.57;3.90;;;6.80;99.90;;;;;;4959837;28;20022;-69
2022/11/21 05:31:39;;;;;;;5.22;2.90;;;6.70;99.90;;;;;;4959874;28;20027;-69
2022/11/21 05:34:04;;;;;;;7.68;3.05;;;6.70;99.90;;;;;;4959700;28;20035;-69
2022/11/21 05:36:30;;;;;;;9.63;3.40;;;6.70;99.90;;;;;;4959749;28;20108;-69
2022/11/21 05:38:55;;;;;;;10.18;3.78;;;6.70;99.90;;;;;;4977014;28;20066;-69
2022/11/21 05:41:21;;;;;;;10.90;3.78;;;6.70;99.90;;;;;;4960680;28;20549;-69
2022/11/21 05:43:47;;;;;;;10.70;4.78;;;6.70;99.90;;;;;;4959743;28;20027;-69
2022/11/21 05:46:16;;;;;;;13.40;4.93;;;6.60;99.90;;;;;;4976958;28;20030;-70
2022/11/21 05:48:41;;;;;;;12.20;4.32;;;6.70;99.90;;;;;;4959787;28;20034;-70
2022/11/21 05:51:07;;;;;;;15.95;5.47;;;6.70;99.90;;;;;;4960066;28;20109;-70
2022/11/21 05:53:34;;;;;;;13.82;6.07;;;6.60;99.90;;;;;;4959807;28;20050;-70
2022/11/21 05:56:25;;;;;;;16.15;5.35;;;6.60;99.90;;;;;;4960099;28;20117;-70
2022/11/21 05:58:53;;;;;;;15.93;5.35;;;6.60;99.90;;;;;;4959346;28;20118;-70
2022/11/21 06:03:25;;;;;;;15.68;5.72;;;6.70;99.90;;;;;;4976708;28;20081;-70
2022/11/21 06:04:05;;;;;;;19.38;5.72;;;6.70;99.90;;;;;;4976565;28;20062;-70
2022/11/21 06:06:31;;;;;;;15.57;5.93;;;6.70;99.90;;;;;;4959005;28;20039;-70
2022/11/21 06:08:56;;;;;;;16.25;6.35;;;6.70;99.90;;;;;;4959311;28;20019;-70
2022/11/21 06:11:22;;;;;;;17.48;7.47;;;6.70;99.90;;;;;;4959162;28;20023;-69
2022/11/21 06:13:47;;;;;;;19.75;7.93;;;6.80;99.90;;;;;;4959062;28;20014;-69
2022/11/21 06:16:18;;;;;;;18.95;7.22;;;6.80;99.90;;;;;;4976330;28;20022;-68
2022/11/21 06:18:46;;;;;;;13.68;6.28;;;6.80;99.90;;;;;;4958958;28;20046;-68
2022/11/21 06:21:14;;;;;;;14.13;5.90;;;6.70;99.90;;;;;;4959037;28;20054;-68
2022/11/21 06:23:40;;;;;;;31.70;7.15;;;6.70;99.90;;;;;;4958968;28;20031;-68
2022/11/21 06:26:07;;;;;;;13.85;6.28;;;6.70;99.90;;;;;;4958814;28;20026;-70
2022/11/21 06:28:35;;;;;;;17.73;6.15;;;6.70;99.90;;;;;;4958771;28;20077;-70
2022/11/21 06:31:05;;;;;;;15.35;6.20;;;6.60;99.90;;;;;;4959667;28;20027;-70
2022/11/21 06:33:31;;;;;;;18.60;6.68;;;6.60;99.90;;;;;;4958790;28;20094;-70
2022/11/21 06:35:57;;;;;;;17.30;6.32;;;6.50;99.90;;;;;;4975982;28;20023;-70
2022/11/21 06:38:23;;;;;;;20.67;7.03;;;6.50;99.90;;;;;;4958888;28;20033;-70
2022/11/21 06:40:48;;;;;;;18.52;6.80;;;6.50;99.90;;;;;;4975957;28;20042;-69
2022/11/21 06:43:14;;;;;;;15.65;7.05;;;6.40;99.90;;;;;;4976463;28;20023;-68
2022/11/21 06:45:39;;;;;;;14.05;6.38;;;6.30;99.90;;;;;;4958332;28;20039;-68
2022/11/21 06:48:05;;;;;;;17.88;7.20;;;6.30;99.90;;;;;;4975743;28;20027;-68
2022/11/21 06:50:31;;;;;;;9.82;4.70;;;6.20;99.90;;;;;;4975981;28;20110;-68
2022/11/21 06:52:57;;;;;;;16.00;6.22;;;6.20;99.90;;;;;;4957781;28;20033;-68
2022/11/21 06:55:24;;;;;;;15.85;6.43;;;6.30;99.90;;;;;;4975516;28;20105;-68
2022/11/21 06:57:49;;;;;;;14.02;7.07;;;6.40;99.90;;;;;;4958257;28;20026;-68
2022/11/21 07:00:15;;;;;;;16.70;7.07;;;6.40;99.90;;;;;;4975849;28;20029;-68
2022/11/21 07:02:41;;;;;;;11.02;6.20;;;6.40;99.90;;;;;;4975731;28;20054;-68
2022/11/21 07:05:07;;;;;;;17.80;7.13;;;6.40;99.90;;;;;;4958979;28;20058;-68
2022/11/21 07:07:32;;;;;;;17.10;6.15;;;6.40;99.90;;;;;;4958805;28;20066;-68
2022/11/21 07:09:58;;;;;;;15.13;6.05;;;6.30;99.90;;;;;;4958008;28;20030;-68
2022/11/21 07:15:08;;;;;;;20.35;6.13;;;6.40;99.90;;;;;;4975520;28;20081;-68
2022/11/21 07:17:33;;;;;;;20.13;6.60;;;6.40;99.90;;;;;;4957805;28;20037;-68
2022/11/21 07:19:59;;;;;;;14.95;6.88;;;6.40;99.90;;;;;;4958216;28;20030;-68
2022/11/21 07:22:24;;;;;;;17.17;6.43;;;6.40;99.90;;;;;;4958367;28;20030;-68
2022/11/21 07:24:50;;;;;;;23.27;7.40;;;6.40;99.90;;;;;;4958048;28;20034;-69
2022/11/21 07:27:15;;;;;;;20.42;7.88;;;6.40;99.90;;;;;;4975328;28;20033;-69
2022/11/21 07:29:41;;;;;;;26.50;7.55;;;6.50;99.90;;;;;;4957700;28;20027;-69
2022/11/21 07:32:06;;;;;;;18.15;7.32;;;6.50;99.90;;;;;;4957716;28;20027;-69
2022/11/21 07:34:32;;;;;;;20.13;7.70;;;6.50;99.90;;;;;;4957492;28;20074;-69
2022/11/21 07:36:57;;;;;;;32.15;8.52;;;6.50;99.90;;;;;;4957866;28;20031;-69
2022/11/21 07:39:23;;;;;;;27.02;8.75;;;6.60;99.90;;;;;;4957501;28;20022;-69
2022/11/21 07:41:48;;;;;;;21.70;8.52;;;6.50;99.90;;;;;;4975115;28;20030;-69
2022/11/21 07:44:14;;;;;;;17.92;7.45;;;6.50;99.90;;;;;;4957502;28;20015;-69
2022/11/21 07:46:39;;;;;;;23.80;7.75;;;6.60;99.90;;;;;;4957639;28;20019;-69
2022/11/21 07:49:05;;;;;;;15.40;6.68;;;6.60;99.90;;;;;;4974686;28;20038;-69
2022/11/21 07:51:31;;;;;;;15.52;5.97;;;6.60;99.90;;;;;;4974815;28;20081;-69
2022/11/21 07:53:57;;;;;;;25.98;7.53;;;6.60;99.90;;;;;;4974720;28;20027;-69
2022/11/21 07:56:25;;;;;;;14.70;6.53;;;6.70;99.90;;;;;;4957207;28;20533;-69
2022/11/21 07:58:51;;;;;;;14.02;4.40;;;6.80;99.90;;;;;;4957761;28;20410;-69
2022/11/21 08:01:17;;;;;;;18.48;5.68;;;6.80;99.90;;;;;;4957335;28;20442;-69
2022/11/21 08:03:42;;;;;;;20.55;5.53;;;6.90;99.90;;;;;;4956282;28;20022;-69
2022/11/21 08:06:11;;;;;;;21.95;6.63;;;6.90;99.90;;;;;;4974670;28;20101;-69
2022/11/21 08:08:36;;;;;;;14.23;4.85;;;6.90;99.90;;;;;;4958031;28;20125;-69
2022/11/21 08:11:06;;;;;;;21.50;5.32;;;6.90;99.90;;;;;;4957199;28;20058;-69
2022/11/21 08:13:33;;;;;;;18.25;6.53;;;6.90;99.90;;;;;;4957517;28;20034;-69
2022/11/21 08:16:00;;;;;;;17.95;5.03;;;6.90;99.90;;;;;;4956850;28;20055;-69
2022/11/21 08:18:26;;;;;;;11.85;4.32;;;7.00;99.90;;;;;;4957048;28;20026;-69
2022/11/21 08:20:51;;;;;;;10.10;3.78;;;7.10;99.90;;;;;;4957026;28;20026;-69
2022/11/21 08:23:17;;;;;;;16.67;4.03;;;7.10;99.90;;;;;;4957569;28;20059;-69
2022/11/21 08:25:43;;;;;;;14.07;3.83;;;7.20;99.90;;;;;;4957224;28;20054;-69
2022/11/21 08:28:11;;;;;;;11.57;3.95;;;7.20;99.90;;;;;;4957701;28;20035;-69
2022/11/21 08:30:39;;;;;;;17.17;4.85;;;7.30;99.90;;;;;;4974516;28;20031;-69
2022/11/21 08:33:05;;;;;;;8.10;3.50;;;7.20;99.90;;;;;;4974262;28;20077;-69
2022/11/21 08:35:31;;;;;;;5.70;2.70;;;7.20;99.90;;;;;;4974077;28;20033;-69
2022/11/21 08:37:58;;;;;;;7.15;2.60;;;7.20;99.90;;;;;;4957155;28;20019;-69
2022/11/21 08:40:24;;;;;;;12.80;3.15;;;7.20;99.90;;;;;;4956852;28;20027;-69
2022/11/21 08:43:03;;;;;;;13.50;4.32;;;7.10;99.90;;;;;;4974348;28;20027;-69
2022/11/21 08:45:29;;;;;;;8.02;2.63;;;7.20;99.90;;;;;;4974117;28;20031;-69
2022/11/21 08:47:55;;;;;;;10.02;2.97;;;7.20;99.90;;;;;;4957001;28;20082;-69
2022/11/21 08:50:21;;;;;;;10.48;2.63;;;7.20;99.90;;;;;;4956801;28;20026;-69
2022/11/21 08:52:47;;;;;;;8.18;3.13;;;7.20;99.90;;;;;;4956809;28;20041;-69
2022/11/21 08:55:13;;;;;;;8.98;3.60;;;7.20;99.90;;;;;;4956566;28;20428;-69
2022/11/21 08:57:40;;;;;;;11.15;2.78;;;7.20;99.90;;;;;;4974075;28;20077;-69
2022/11/21 09:00:07;;;;;;;6.05;2.30;;;7.30;99.90;;;;;;4973971;28;20098;-69
2022/11/21 09:02:33;;;;;;;14.02;2.97;;;7.30;99.90;;;;;;4956639;28;20030;-69
2022/11/21 09:04:59;;;;;;;11.57;2.72;;;7.30;99.90;;;;;;4981038;23;20031;-67
2022/11/21 09:07:25;;;;;;;7.82;2.42;;;7.30;99.90;;;;;;5013204;28;20042;-67
2022/11/21 09:09:50;;;;;;;11.20;4.15;;;7.20;99.90;;;;;;4995416;28;20054;-65
2022/11/21 09:12:16;;;;;;;12.32;2.92;;;7.30;99.90;;;;;;4995454;28;20037;-65
2022/11/21 09:20:09;;;;;;;4.88;2.45;;;7.30;99.90;;;;;;4996965;28;20061;-66
2022/11/21 09:22:35;;;;;;;9.32;3.13;;;7.30;99.90;;;;;;4979765;28;20031;-66
2022/11/21 09:25:01;;;;;;;7.40;3.00;;;7.40;99.90;;;;;;4979269;28;20023;-66
2022/11/21 09:27:26;;;;;;;8.57;2.70;;;7.40;99.90;;;;;;4996751;28;20037;-66
2022/11/21 09:29:52;;;;;;;10.85;2.70;;;7.50;99.90;;;;;;4996893;28;20473;-65
2022/11/21 09:32:17;;;;;;;7.63;2.53;;;7.60;99.90;;;;;;4980473;28;20482;-66
2022/11/21 09:34:43;;;;;;;9.75;2.88;;;7.70;99.90;;;;;;4979213;28;20030;-66
2022/11/21 09:37:08;;;;;;;7.78;2.10;;;7.80;99.90;;;;;;4996677;28;20050;-66
2022/11/21 09:39:34;;;;;;;4.90;1.90;;;7.80;99.90;;;;;;4979084;28;20113;-65
2022/11/21 09:42:30;;;;;;;4.57;1.70;;;7.80;99.90;;;;;;4979017;28;20041;-66
2022/11/21 09:45:16;;;;;;;9.40;2.33;;;7.70;99.90;;;;;;4978888;28;20026;-66
2022/11/21 09:47:46;;;;;;;3.20;1.63;;;7.60;99.90;;;;;;4996518;28;20022;-66
2022/11/21 09:50:11;;;;;;;3.30;1.80;;;7.60;99.90;;;;;;4996432;28;20117;-65
2022/11/21 09:52:46;;;;;;;5.63;2.20;;;7.60;99.90;;;;;;4979834;28;20061;-65
2022/11/21 09:55:43;;;;;;;6.05;2.80;;;7.60;99.90;;;;;;4996190;28;20031;-66
2022/11/21 09:58:42;;;;;;;8.85;2.40;;;7.60;99.90;;;;;;4947558;28;20054;-66
2022/11/21 10:01:11;;;;;;;13.80;2.55;;;7.70;99.90;;;;;;4978755;28;20054;-66
2022/11/21 10:03:46;;;;;;;7.88;2.35;;;7.70;99.90;;;;;;4978926;28;20129;-66
2022/11/21 10:06:24;;;;;;;3.67;1.90;;;7.80;99.90;;;;;;4978829;28;20062;-66
2022/11/21 10:09:15;;;;;;;10.35;2.05;;;7.80;99.90;;;;;;4996023;28;20105;-66
2022/11/21 10:15:20;;;;;;;5.20;1.50;;;7.70;99.90;;;;;;4995824;28;20120;-66
2022/11/21 10:17:46;;;;;;;3.33;1.77;;;7.70;99.90;;;;;;4978378;28;20022;-66
2022/11/21 10:20:35;;;;;;;4.22;2.08;;;7.70;99.90;;;;;;4978515;28;20019;-66
2022/11/21 10:23:13;;;;;;;5.00;2.60;;;7.70;99.90;;;;;;4978347;28;20026;-66
2022/11/21 10:25:41;;;;;;;4.47;2.10;;;7.70;99.90;;;;;;4978830;28;20033;-66
2022/11/21 10:28:19;;;;;;;3.15;1.90;;;7.70;99.90;;;;;;4977400;28;20031;-66
2022/11/21 10:30:46;;;;;;;12.52;2.85;;;7.80;99.90;;;;;;4995721;28;20033;-67
2022/11/21 10:33:17;;;;;;;3.55;1.80;;;7.80;99.90;;;;;;4978070;28;20486;-67
2022/11/21 10:35:56;;;;;;;5.43;2.55;;;7.90;99.90;;;;;;4979034;28;20037;-67
2022/11/21 10:38:24;;;;;;;7.18;2.83;;;8.00;99.90;;;;;;4978112;28;20124;-67
2022/11/21 10:41:16;;;;;;;7.05;1.60;;;8.10;99.90;;;;;;4978092;28;20478;-67
2022/11/21 10:47:00;;;;;;;6.88;2.00;;;8.30;99.90;;;;;;4995351;28;20092;-67
2022/11/21 10:49:31;;;;;;;4.78;1.83;;;8.40;99.90;;;;;;4977880;28;20041;-67
2022/11/21 10:52:05;;;;;;;6.57;1.70;;;8.30;99.90;;;;;;4977814;28;20034;-67
2022/11/21 10:54:31;;;;;;;2.38;1.58;;;8.30;99.90;;;;;;4995169;28;20121;-66
2022/11/21 10:57:12;;;;;;;3.55;1.45;;;8.30;99.90;;;;;;4977620;28;20113;-67
2022/11/21 10:59:38;;;;;;;3.35;1.15;;;8.40;99.90;;;;;;4995100;28;20031;-66
2022/11/21 11:02:12;;;;;;;4.00;1.30;;;8.50;99.90;;;;;;4977577;28;20023;-66
2022/11/21 11:04:38;;;;;;;4.15;1.20;;;8.40;99.90;;;;;;4978309;28;20057;-66
2022/11/21 11:07:27;;;;;;;3.10;1.45;;;8.40;99.90;;;;;;4977854;28;20034;-66
2022/11/21 11:10:22;;;;;;;3.00;1.27;;;8.50;99.90;;;;;;4995249;28;20081;-66
2022/11/21 11:15:38;;;;;;;4.15;2.53;;;8.80;99.90;;;;;;4994689;28;20085;-67
2022/11/21 11:18:04;;;;;;;3.03;1.33;;;8.90;99.90;;;;;;4994716;28;20022;-67
2022/11/21 11:20:36;;;;;;;4.25;1.38;;;9.10;99.90;;;;;;4977218;28;20094;-66
2022/11/21 11:23:18;;;;;;;2.80;1.15;;;9.30;99.90;;;;;;4994591;28;20027;-66
2022/11/21 11:25:47;;;;;;;1.77;1.23;;;9.50;99.90;;;;;;4976811;28;20037;-67
2022/11/21 11:28:12;;;;;;;5.30;2.10;;;9.60;99.90;;;;;;4994502;28;20102;-67
2022/11/21 11:30:39;;;;;;;1.83;1.17;;;9.80;99.90;;;;;;4977880;28;20113;-67
2022/11/21 11:33:38;;;;;;;1.35;0.90;;;9.80;99.90;;;;;;4994751;28;20102;-67
2022/11/21 11:36:23;;;;;;;3.83;1.23;;;9.90;99.90;;;;;;4994373;28;20026;-67
2022/11/21 11:38:56;;;;;;;1.77;0.90;;;10.00;99.90;;;;;;4976768;28;20473;-67
2022/11/21 11:47:56;;;;;;;1.05;0.60;;;10.70;99.90;;;;;;4995055;28;20121;-67
2022/11/21 11:50:43;;;;;;;3.92;1.83;;;10.90;99.90;;;;;;4977100;28;20022;-67
2022/11/21 11:53:16;;;;;;;2.08;0.90;;;11.00;99.90;;;;;;4994461;28;20038;-67
2022/11/21 11:56:01;;;;;;;1.60;0.60;;;11.10;99.90;;;;;;4994363;28;20058;-67
2022/11/21 11:58:43;;;;;;;3.67;0.75;;;11.20;99.90;;;;;;4977761;28;20022;-67
2022/11/21 12:01:43;;;;;;;2.35;0.82;;;11.30;99.90;;;;;;4994408;28;20037;-67
2022/11/21 12:04:23;;;;;;;1.90;0.90;;;11.30;99.90;;;;;;4977596;28;20026;-67
2022/11/21 12:06:55;;;;;;;3.93;1.57;;;11.10;99.90;;;;;;4976523;28;20034;-67
2022/11/21 12:09:58;;;;;;;0.90;0.70;;;11.10;99.90;;;;;;4977727;28;20109;-67
2022/11/21 12:12:44;;;;;;;0.98;0.70;;;10.90;99.90;;;;;;4994073;28;20030;-67
2022/11/21 12:18:19;;;;;;;4.65;0.93;;;10.50;99.90;;;;;;4993825;28;20029;-67
2022/11/21 12:21:04;;;;;;;8.13;1.40;;;10.30;99.90;;;;;;4993953;28;20038;-67
2022/11/21 12:23:51;;;;;;;3.10;1.25;;;10.20;99.90;;;;;;4976470;28;20033;-67
2022/11/21 12:26:43;;;;;;;3.85;1.00;;;10.00;99.90;;;;;;4976386;28;20019;-67
2022/11/21 12:29:23;;;;;;;5.63;1.88;;;9.90;99.90;;;;;;4977023;28;20026;-67
2022/11/21 12:32:12;;;;;;;4.15;1.20;;;9.80;99.90;;;;;;4976984;28;20027;-67
2022/11/21 12:35:13;;;;;;;1.98;1.02;;;9.80;99.90;;;;;;4976271;28;20031;-67
2022/11/21 12:37:45;;;;;;;2.08;1.05;;;9.60;99.90;;;;;;4934096;28;20027;-68
2022/11/21 12:40:33;;;;;;;4.63;1.30;;;9.60;99.90;;;;;;4993802;28;20065;-67
2022/11/21 12:43:29;;;;;;;0.93;0.75;;;9.60;99.90;;;;;;4993710;28;20106;-67
2022/11/21 12:46:01;;;;;;;1.98;0.82;;;9.60;99.90;;;;;;4976323;28;20481;-67
2022/11/21 12:55:08;;;;;;;2.92;0.95;;;9.70;99.90;;;;;;4976894;28;20092;-67
2022/11/21 12:58:00;;;;;;;3.63;0.95;;;9.70;99.90;;;;;;4980347;28;20062;-67
2022/11/21 13:01:02;;;;;;;6.93;1.00;;;9.70;99.90;;;;;;4979463;28;20026;-67
2022/11/21 13:03:50;;;;;;;2.95;1.00;;;9.70;99.90;;;;;;4997788;28;20029;-67
2022/11/21 13:06:22;;;;;;;3.75;1.08;;;9.60;99.90;;;;;;4979768;28;20044;-67
2022/11/21 13:08:50;;;;;;;3.80;0.73;;;9.50;99.90;;;;;;4979953;28;20026;-67
2022/11/21 13:14:16;;;;;;;3.00;1.30;;;9.50;99.90;;;;;;4997576;28;20077;-67
2022/11/21 13:16:48;;;;;;;3.20;0.80;;;9.50;99.90;;;;;;4979450;28;20033;-67
2022/11/21 13:19:17;;;;;;;3.55;1.23;;;9.40;99.90;;;;;;4979567;28;20018;-67
2022/11/21 13:21:48;;;;;;;5.03;1.50;;;9.50;99.90;;;;;;4979696;28;20121;-67
2022/11/21 13:24:43;;;;;;;4.13;1.17;;;9.40;99.90;;;;;;4979698;28;20477;-67
2022/11/21 13:27:27;;;;;;;2.38;1.10;;;9.40;99.90;;;;;;4979290;28;20113;-67
2022/11/21 13:30:08;;;;;;;2.88;1.02;;;9.40;99.90;;;;;;4979435;28;20057;-67
2022/11/21 13:32:48;;;;;;;2.13;0.73;;;9.40;99.90;;;;;;4979737;28;20165;-67
2022/11/21 13:35:14;;;;;;;2.47;0.73;;;9.40;99.90;;;;;;4996721;28;20038;-67
2022/11/21 13:37:48;;;;;;;1.23;1.08;;;9.40;99.90;;;;;;4996713;28;20029;-67
2022/11/21 13:40:29;;;;;;;2.38;1.23;;;9.40;99.90;;;;;;4996642;28;20019;-67
2022/11/21 13:43:18;;;;;;;3.67;1.33;;;9.40;99.90;;;;;;4996650;28;20030;-67
2022/11/21 13:45:49;;;;;;;5.25;1.00;;;9.50;99.90;;;;;;4996439;28;20029;-67
2022/11/21 13:48:33;;;;;;;2.00;1.00;;;9.50;99.90;;;;;;4996425;28;20029;-67